Time;durP1;ratioP1;P1;durP2;ratioP2;P2;SDS_P1;SDS_P2;PMS_P1;PMS_P2;Temp;Humidity;BMP_temperature;BMP_pressure;BME280_temperature;BME280_humidity;BME280_pressure;Samples;Min_cycle;Max_cycle;Signal;HPM_P1;HPM_P2
2024/01/10 00:01:17;;;;;;;11.73;7.20;;;-1.70;76.30;;;;;;5074158;28;20449;-60
2024/01/10 00:03:44;;;;;;;9.73;6.17;;;-1.70;77.50;;;;;;5074261;28;20839;-61
2024/01/10 00:06:11;;;;;;;11.17;7.47;;;-1.70;77.20;;;;;;5073845;28;20436;-60
2024/01/10 00:08:38;;;;;;;11.30;7.13;;;-1.70;77.50;;;;;;5073833;28;20460;-61
2024/01/10 00:11:06;;;;;;;9.87;7.33;;;-1.70;77.70;;;;;;5073743;28;20950;-61
2024/01/10 00:13:33;;;;;;;10.40;6.60;;;-1.70;77.90;;;;;;5073739;28;20483;-60
2024/01/10 00:16:00;;;;;;;14.10;6.33;;;-1.70;78.10;;;;;;5073773;28;20535;-60
2024/01/10 00:18:27;;;;;;;15.17;8.00;;;-1.80;78.10;;;;;;5074052;28;20539;-61
2024/01/10 00:20:54;;;;;;;12.00;7.23;;;-1.80;78.40;;;;;;5074758;28;20444;-61
2024/01/10 00:23:21;;;;;;;13.07;7.67;;;-1.80;78.70;;;;;;5074369;28;20441;-60
2024/01/10 00:25:48;;;;;;;12.93;6.53;;;-1.80;79.10;;;;;;5073738;28;20440;-60
2024/01/10 00:28:17;;;;;;;12.83;7.80;;;-1.80;79.20;;;;;;5073888;28;20480;-60
2024/01/10 00:30:44;;;;;;;11.10;7.10;;;-1.80;79.50;;;;;;5073902;28;20544;-61
2024/01/10 00:33:12;;;;;;;12.27;7.67;;;-1.80;79.70;;;;;;5073625;28;20448;-60
2024/01/10 00:35:38;;;;;;;18.20;6.93;;;-1.80;80.20;;;;;;5073620;28;20492;-60
2024/01/10 00:38:05;;;;;;;9.00;7.10;;;-1.80;80.70;;;;;;5073470;28;20990;-60
2024/01/10 00:40:32;;;;;;;10.83;6.93;;;-1.90;80.90;;;;;;5073479;28;20449;-60
2024/01/10 00:42:58;;;;;;;11.23;7.43;;;-1.90;81.10;;;;;;5073720;28;20444;-60
2024/01/10 00:45:26;;;;;;;14.93;7.77;;;-1.90;81.20;;;;;;5073677;28;20441;-60
2024/01/10 00:47:53;;;;;;;11.07;7.30;;;-1.90;81.30;;;;;;5073566;28;20511;-60
2024/01/10 00:50:20;;;;;;;16.40;7.60;;;-1.90;81.50;;;;;;5073509;28;20437;-60
2024/01/10 00:52:47;;;;;;;10.73;6.80;;;-1.90;81.80;;;;;;5074665;28;20452;-60
2024/01/10 00:55:14;;;;;;;15.27;7.70;;;-1.90;81.70;;;;;;5073424;28;20463;-60
2024/01/10 00:57:41;;;;;;;10.13;7.40;;;-2.00;82.10;;;;;;5072761;28;20461;-60
2024/01/10 01:00:10;;;;;;;14.20;7.70;;;-2.00;82.60;;;;;;5073137;28;20437;-60
2024/01/10 01:02:39;;;;;;;16.63;7.60;;;-2.00;82.80;;;;;;5072724;28;20480;-60
2024/01/10 01:05:06;;;;;;;13.63;7.67;;;-2.00;83.00;;;;;;5073321;28;20862;-60
2024/01/10 01:07:33;;;;;;;10.03;7.20;;;-2.00;83.20;;;;;;5073118;28;20903;-60
2024/01/10 01:10:00;;;;;;;12.93;8.20;;;-2.10;83.50;;;;;;5073191;28;20441;-60
2024/01/10 01:12:27;;;;;;;13.43;8.10;;;-2.10;83.80;;;;;;5073302;28;20444;-60
2024/01/10 01:14:54;;;;;;;9.50;6.60;;;-2.10;83.90;;;;;;5073115;28;20451;-60
2024/01/10 01:17:20;;;;;;;12.70;7.73;;;-2.10;84.00;;;;;;5073011;28;20795;-61
2024/01/10 01:19:48;;;;;;;12.87;7.83;;;-2.10;84.20;;;;;;5073213;28;20444;-60
2024/01/10 01:22:15;;;;;;;11.57;6.90;;;-2.10;84.60;;;;;;5073060;28;20444;-60
2024/01/10 01:24:42;;;;;;;12.37;7.07;;;-2.20;84.80;;;;;;5072884;28;20938;-60
2024/01/10 01:27:08;;;;;;;14.57;8.90;;;-2.20;84.90;;;;;;5072996;28;20492;-60
2024/01/10 01:29:35;;;;;;;10.53;6.60;;;-2.20;85.00;;;;;;5072892;28;20974;-60
2024/01/10 01:32:01;;;;;;;12.93;8.50;;;-2.20;85.40;;;;;;5073068;28;20810;-60
2024/01/10 01:34:27;;;;;;;14.60;8.30;;;-2.30;85.30;;;;;;5072991;28;20444;-60
2024/01/10 01:36:55;;;;;;;12.20;8.10;;;-2.30;85.60;;;;;;5073036;28;20210;-60
2024/01/10 01:39:22;;;;;;;14.17;8.17;;;-2.30;85.70;;;;;;5072930;28;20457;-60
2024/01/10 01:41:49;;;;;;;10.33;8.03;;;-2.30;85.70;;;;;;5072967;28;20820;-60
2024/01/10 01:44:16;;;;;;;10.97;7.40;;;-2.30;85.80;;;;;;5072888;28;20463;-61
2024/01/10 01:46:42;;;;;;;12.90;7.50;;;-2.30;86.10;;;;;;5072822;28;20440;-60
2024/01/10 01:49:11;;;;;;;10.90;7.27;;;-2.40;86.50;;;;;;5072826;28;20548;-60
2024/01/10 01:51:40;;;;;;;11.80;7.00;;;-2.40;86.90;;;;;;5072609;28;20926;-61
2024/01/10 01:54:11;;;;;;;12.50;7.87;;;-2.40;87.50;;;;;;5072774;28;20807;-60
2024/01/10 01:56:39;;;;;;;15.23;7.50;;;-2.40;87.90;;;;;;5072799;28;20873;-60
2024/01/10 01:59:06;;;;;;;12.63;7.33;;;-2.40;88.00;;;;;;5072432;28;20995;-61
2024/01/10 02:01:33;;;;;;;13.13;7.33;;;-2.40;88.10;;;;;;5072791;28;20452;-60
2024/01/10 02:04:01;;;;;;;15.73;7.00;;;-2.40;88.20;;;;;;5072790;28;20957;-60
2024/01/10 02:06:29;;;;;;;9.50;6.93;;;-2.40;88.20;;;;;;5072596;28;20437;-60
2024/01/10 02:08:56;;;;;;;13.27;8.83;;;-2.40;88.20;;;;;;5072331;28;21013;-60
2024/01/10 02:11:25;;;;;;;10.90;7.90;;;-2.40;88.50;;;;;;5072612;28;20793;-60
2024/01/10 02:13:54;;;;;;;11.33;6.90;;;-2.40;88.50;;;;;;5074491;28;20494;-60
2024/01/10 02:16:21;;;;;;;11.97;7.57;;;-2.40;89.00;;;;;;5076405;28;20445;-60
2024/01/10 02:18:49;;;;;;;11.60;7.57;;;-2.40;89.10;;;;;;5075728;28;21018;-60
2024/01/10 02:21:16;;;;;;;13.30;7.70;;;-2.40;89.10;;;;;;5076381;28;20452;-60
2024/01/10 02:23:43;;;;;;;12.37;7.30;;;-2.50;89.20;;;;;;5075894;28;20989;-60
2024/01/10 02:26:11;;;;;;;11.63;7.93;;;-2.50;89.20;;;;;;5076210;28;20448;-60
2024/01/10 02:28:36;;;;;;;11.20;7.10;;;-2.50;88.90;;;;;;5076405;28;20492;-60
2024/01/10 02:31:03;;;;;;;12.77;8.10;;;-2.50;88.70;;;;;;5075901;28;20433;-60
2024/01/10 02:33:30;;;;;;;12.47;7.67;;;-2.50;88.70;;;;;;5075836;28;20224;-60
2024/01/10 02:35:57;;;;;;;17.43;7.73;;;-2.50;89.00;;;;;;5075582;28;20947;-60
2024/01/10 02:38:23;;;;;;;10.20;7.00;;;-2.50;89.10;;;;;;5075904;28;20807;-60
2024/01/10 02:40:50;;;;;;;12.10;6.83;;;-2.50;89.20;;;;;;5076039;28;20440;-60
2024/01/10 02:43:18;;;;;;;12.27;6.77;;;-2.50;89.30;;;;;;5076014;28;20471;-60
2024/01/10 02:45:45;;;;;;;14.07;7.70;;;-2.50;89.30;;;;;;5075770;28;20467;-60
2024/01/10 02:48:11;;;;;;;13.07;7.77;;;-2.50;89.50;;;;;;5075792;28;20511;-60
2024/01/10 02:50:39;;;;;;;17.23;7.57;;;-2.50;89.60;;;;;;5076360;28;20445;-60
2024/01/10 02:53:05;;;;;;;11.57;7.10;;;-2.60;89.50;;;;;;5075732;28;20445;-60
2024/01/10 02:55:32;;;;;;;13.87;7.47;;;-2.60;89.80;;;;;;5075414;28;20935;-60
2024/01/10 02:57:59;;;;;;;13.10;7.27;;;-2.60;89.90;;;;;;5075543;28;20800;-60
2024/01/10 03:00:27;;;;;;;10.00;7.00;;;-2.60;89.80;;;;;;5075325;28;20440;-60
2024/01/10 03:02:53;;;;;;;11.03;7.10;;;-2.60;89.80;;;;;;5075420;28;20449;-60
2024/01/10 03:05:20;;;;;;;13.60;7.40;;;-2.60;90.00;;;;;;5075685;28;20451;-60
2024/01/10 03:07:47;;;;;;;12.13;6.70;;;-2.60;89.80;;;;;;5075306;28;20508;-60
2024/01/10 03:10:13;;;;;;;12.27;7.03;;;-2.60;89.70;;;;;;5075313;28;20436;-61
2024/01/10 03:12:40;;;;;;;13.50;6.80;;;-2.60;89.40;;;;;;5075397;28;20441;-60
2024/01/10 03:15:07;;;;;;;14.47;7.70;;;-2.60;89.50;;;;;;5075350;28;20463;-60
2024/01/10 03:17:35;;;;;;;14.10;6.27;;;-2.70;89.60;;;;;;5074823;28;20433;-60
2024/01/10 03:20:03;;;;;;;20.30;7.80;;;-2.70;89.90;;;;;;5075085;28;20487;-60
2024/01/10 03:22:30;;;;;;;12.20;7.80;;;-2.70;90.00;;;;;;5075596;28;20441;-60
2024/01/10 03:24:57;;;;;;;17.03;8.50;;;-2.70;90.00;;;;;;5075142;28;20799;-60
2024/01/10 03:27:23;;;;;;;9.80;6.80;;;-2.70;89.90;;;;;;5075035;28;20445;-60
2024/01/10 03:29:50;;;;;;;17.73;8.17;;;-2.70;89.80;;;;;;5075237;28;20464;-60
2024/01/10 03:32:17;;;;;;;12.07;7.10;;;-2.70;90.00;;;;;;5075435;28;20476;-60
2024/01/10 03:34:46;;;;;;;12.17;7.87;;;-2.80;90.00;;;;;;5074864;28;20452;-60
2024/01/10 03:37:12;;;;;;;12.93;7.17;;;-2.80;90.00;;;;;;5074781;28;20772;-60
2024/01/10 03:39:39;;;;;;;9.90;6.30;;;-2.80;90.00;;;;;;5074924;28;20473;-60
2024/01/10 03:42:06;;;;;;;11.53;6.70;;;-2.80;90.00;;;;;;5074799;28;20445;-60
2024/01/10 03:44:33;;;;;;;11.00;6.57;;;-2.80;90.00;;;;;;5074561;28;20969;-60
2024/01/10 03:46:59;;;;;;;10.60;6.30;;;-2.80;90.10;;;;;;5074602;28;20448;-60
2024/01/10 03:49:26;;;;;;;8.50;6.23;;;-2.80;90.00;;;;;;5074259;28;20888;-60
2024/01/10 03:51:54;;;;;;;11.97;8.13;;;-2.80;90.00;;;;;;5074150;28;20962;-59
2024/01/10 03:54:20;;;;;;;10.93;7.23;;;-2.80;90.00;;;;;;5074627;28;20464;-60
2024/01/10 03:56:47;;;;;;;11.23;6.47;;;-2.90;90.00;;;;;;5074487;28;20453;-60
2024/01/10 03:59:14;;;;;;;11.97;7.50;;;-2.80;90.20;;;;;;5074342;28;20461;-59
2024/01/10 04:01:41;;;;;;;11.80;8.00;;;-2.80;90.10;;;;;;5074393;28;20451;-60
2024/01/10 04:04:07;;;;;;;11.30;6.40;;;-2.80;90.00;;;;;;5074318;28;20452;-60
2024/01/10 04:06:34;;;;;;;11.00;7.03;;;-2.80;90.00;;;;;;5074310;28;20436;-60
2024/01/10 04:09:02;;;;;;;13.57;7.97;;;-2.80;90.00;;;;;;5073976;28;20851;-60
2024/01/10 04:11:29;;;;;;;9.20;6.70;;;-2.80;90.00;;;;;;5074081;28;20793;-60
2024/01/10 04:13:56;;;;;;;11.47;5.97;;;-2.80;90.00;;;;;;5074089;28;20455;-59
2024/01/10 04:16:23;;;;;;;11.73;6.60;;;-2.90;89.70;;;;;;5073733;28;20955;-60
2024/01/10 04:18:49;;;;;;;11.60;6.67;;;-2.90;89.80;;;;;;5073764;28;20514;-59
2024/01/10 04:21:16;;;;;;;11.63;7.00;;;-2.90;90.00;;;;;;5073466;28;20444;-59
2024/01/10 04:23:43;;;;;;;12.60;7.83;;;-2.90;89.80;;;;;;5074037;28;20467;-60
2024/01/10 04:26:11;;;;;;;12.20;7.00;;;-2.90;89.80;;;;;;5073621;28;21007;-60
2024/01/10 04:28:40;;;;;;;11.03;7.10;;;-2.90;89.70;;;;;;5074135;28;20484;-60
2024/01/10 04:31:06;;;;;;;13.53;7.90;;;-2.90;89.60;;;;;;5073990;28;20522;-60
2024/01/10 04:33:33;;;;;;;10.47;6.30;;;-2.90;89.90;;;;;;5073549;28;20444;-60
2024/01/10 04:36:00;;;;;;;12.97;6.93;;;-2.90;89.70;;;;;;5073234;28;20449;-60
2024/01/10 04:38:26;;;;;;;10.10;6.30;;;-2.90;89.60;;;;;;5073173;28;20472;-60
2024/01/10 04:40:53;;;;;;;10.70;6.33;;;-2.90;89.70;;;;;;5073778;28;20452;-60
2024/01/10 04:43:21;;;;;;;11.50;6.97;;;-2.90;89.70;;;;;;5073827;28;20441;-60
2024/01/10 04:45:48;;;;;;;10.07;6.93;;;-2.90;89.50;;;;;;5073520;28;20448;-60
2024/01/10 04:48:15;;;;;;;10.07;7.60;;;-2.90;89.50;;;;;;5073618;28;20488;-60
2024/01/10 04:50:42;;;;;;;10.70;6.50;;;-2.90;89.60;;;;;;5073430;28;20448;-60
2024/01/10 04:53:08;;;;;;;16.03;6.80;;;-2.90;89.70;;;;;;5073132;28;21014;-60
2024/01/10 04:55:35;;;;;;;9.83;7.43;;;-2.90;89.90;;;;;;5073498;28;20440;-60
2024/01/10 04:58:02;;;;;;;12.47;7.60;;;-2.90;90.10;;;;;;5073819;28;20476;-60
2024/01/10 05:00:31;;;;;;;11.33;5.97;;;-2.90;90.10;;;;;;5073604;28;20452;-60
2024/01/10 05:02:57;;;;;;;11.87;7.43;;;-2.90;90.10;;;;;;5073545;28;20504;-60
2024/01/10 05:05:24;;;;;;;13.10;7.93;;;-2.90;90.00;;;;;;5073454;28;20443;-60
2024/01/10 05:07:51;;;;;;;13.23;6.57;;;-2.90;90.00;;;;;;5073272;28;20830;-60
2024/01/10 05:10:18;;;;;;;10.23;6.63;;;-2.90;90.00;;;;;;5073163;28;20946;-60
2024/01/10 05:12:44;;;;;;;10.13;7.10;;;-2.80;90.10;;;;;;5073293;28;20447;-60
2024/01/10 05:15:11;;;;;;;15.07;6.77;;;-2.80;90.00;;;;;;5073388;28;20449;-60
2024/01/10 05:17:39;;;;;;;12.37;8.23;;;-2.80;90.00;;;;;;5073474;28;20477;-60
2024/01/10 05:20:08;;;;;;;10.60;6.67;;;-2.80;89.80;;;;;;5073201;28;20942;-60
2024/01/10 05:22:35;;;;;;;10.17;6.90;;;-2.80;89.30;;;;;;5073436;28;20452;-60
2024/01/10 05:25:02;;;;;;;10.30;7.00;;;-2.80;89.20;;;;;;5073315;28;20449;-60
2024/01/10 05:27:29;;;;;;;11.20;6.40;;;-2.80;89.10;;;;;;5073152;28;20447;-60
2024/01/10 05:29:55;;;;;;;22.63;8.00;;;-2.80;89.10;;;;;;5073326;28;20480;-60
2024/01/10 05:32:22;;;;;;;12.53;6.73;;;-2.80;89.20;;;;;;5073252;28;20441;-60
2024/01/10 05:34:50;;;;;;;12.80;7.53;;;-2.80;89.00;;;;;;5073253;28;20495;-60
2024/01/10 05:37:16;;;;;;;13.67;7.10;;;-2.80;88.90;;;;;;5073228;28;20429;-60
2024/01/10 05:39:43;;;;;;;12.40;7.73;;;-2.80;88.70;;;;;;5073163;28;20549;-60
2024/01/10 05:42:10;;;;;;;14.23;7.53;;;-2.80;88.60;;;;;;5073125;28;20444;-60
2024/01/10 05:44:38;;;;;;;13.17;7.70;;;-2.80;88.70;;;;;;5073006;28;20445;-60
2024/01/10 05:47:05;;;;;;;10.70;7.00;;;-2.80;88.80;;;;;;5073043;28;20448;-60
2024/01/10 05:49:32;;;;;;;11.70;7.80;;;-2.80;88.80;;;;;;5075637;28;20484;-60
2024/01/10 05:52:00;;;;;;;12.47;8.07;;;-2.80;88.80;;;;;;5076927;28;20449;-60
2024/01/10 05:54:28;;;;;;;15.13;8.93;;;-2.90;88.90;;;;;;5076940;28;20484;-60
2024/01/10 05:56:55;;;;;;;17.93;9.10;;;-2.90;89.20;;;;;;5076921;28;20503;-60
2024/01/10 05:59:21;;;;;;;15.27;8.63;;;-2.90;89.50;;;;;;5076912;28;20472;-61
2024/01/10 06:01:48;;;;;;;17.30;8.23;;;-2.90;89.50;;;;;;5076849;28;20447;-60
2024/01/10 06:04:15;;;;;;;15.47;8.57;;;-2.90;89.60;;;;;;5076854;28;20841;-61
2024/01/10 06:06:41;;;;;;;14.53;8.27;;;-2.90;89.70;;;;;;5076821;28;20452;-60
2024/01/10 06:09:11;;;;;;;11.63;7.90;;;-2.90;89.90;;;;;;5076601;28;20491;-60
2024/01/10 06:11:41;;;;;;;15.70;9.37;;;-2.90;90.00;;;;;;5076735;28;20445;-60
2024/01/10 06:14:08;;;;;;;10.77;7.77;;;-2.90;89.90;;;;;;5076195;28;20954;-60
2024/01/10 06:16:35;;;;;;;12.43;7.07;;;-3.00;89.90;;;;;;5076430;28;20818;-60
2024/01/10 06:19:02;;;;;;;13.27;7.37;;;-3.00;90.10;;;;;;5076558;28;20460;-60
2024/01/10 06:21:28;;;;;;;14.60;7.80;;;-3.00;90.20;;;;;;5076842;28;20820;-60
2024/01/10 06:23:55;;;;;;;11.77;7.47;;;-3.00;90.20;;;;;;5076875;28;20869;-60
2024/01/10 06:26:23;;;;;;;19.80;7.50;;;-3.00;90.20;;;;;;5077501;28;20450;-60
2024/01/10 06:28:50;;;;;;;16.00;10.30;;;-3.00;90.40;;;;;;5078582;28;20488;-60
2024/01/10 06:31:17;;;;;;;13.67;8.90;;;-3.00;90.60;;;;;;5077658;28;20441;-60
2024/01/10 06:33:43;;;;;;;15.63;9.93;;;-3.10;90.70;;;;;;5077001;28;20447;-60
2024/01/10 06:36:10;;;;;;;13.27;9.40;;;-3.00;90.80;;;;;;5076032;28;20453;-60
2024/01/10 06:38:38;;;;;;;13.80;8.70;;;-3.00;90.90;;;;;;5076226;28;20460;-60
2024/01/10 06:41:09;;;;;;;13.20;9.60;;;-3.00;91.00;;;;;;5076513;28;20441;-60
2024/01/10 06:43:37;;;;;;;14.07;8.40;;;-3.10;90.90;;;;;;5076419;28;20887;-59
2024/01/10 06:46:04;;;;;;;16.80;9.53;;;-3.10;91.00;;;;;;5076026;28;20468;-59
2024/01/10 06:48:31;;;;;;;17.97;8.73;;;-3.10;91.10;;;;;;5075736;28;20504;-59
2024/01/10 06:50:58;;;;;;;13.10;7.77;;;-3.10;91.20;;;;;;5075917;28;20452;-59
2024/01/10 06:53:25;;;;;;;15.60;7.83;;;-3.10;91.20;;;;;;5075769;28;20447;-59
2024/01/10 06:55:51;;;;;;;13.10;8.37;;;-3.10;91.30;;;;;;5075812;28;20469;-59
2024/01/10 06:58:18;;;;;;;14.67;8.00;;;-3.10;91.40;;;;;;5075851;28;20465;-59
2024/01/10 07:00:46;;;;;;;12.07;7.10;;;-3.10;91.40;;;;;;5074537;28;20437;-59
2024/01/10 07:03:13;;;;;;;13.43;6.70;;;-3.10;91.40;;;;;;5075737;28;20441;-60
2024/01/10 07:05:39;;;;;;;12.83;7.60;;;-3.10;91.40;;;;;;5075249;28;20441;-59
2024/01/10 07:08:06;;;;;;;12.30;7.47;;;-3.10;91.40;;;;;;5075493;28;20896;-59
2024/01/10 07:10:34;;;;;;;21.60;7.67;;;-3.10;91.30;;;;;;5075383;28;20477;-59
2024/01/10 07:13:04;;;;;;;14.07;7.53;;;-3.10;91.30;;;;;;5074996;28;20943;-60
2024/01/10 07:15:30;;;;;;;11.37;7.23;;;-3.10;91.80;;;;;;5075305;28;20451;-59
2024/01/10 07:17:58;;;;;;;16.07;8.67;;;-3.10;91.50;;;;;;5075290;28;20472;-59
2024/01/10 07:20:25;;;;;;;13.90;7.73;;;-3.10;91.50;;;;;;5075284;28;20452;-59
2024/01/10 07:22:52;;;;;;;11.83;7.07;;;-3.10;91.40;;;;;;5075000;28;20449;-59
2024/01/10 07:25:22;;;;;;;13.43;8.77;;;-3.10;91.30;;;;;;5075222;28;20449;-59
2024/01/10 07:27:49;;;;;;;14.47;8.00;;;-3.10;91.20;;;;;;5075038;28;20552;-60
2024/01/10 07:30:16;;;;;;;11.97;7.37;;;-3.00;91.20;;;;;;5074743;28;20990;-59
2024/01/10 07:32:43;;;;;;;20.27;9.83;;;-3.10;91.30;;;;;;5074695;28;20969;-59
2024/01/10 07:35:11;;;;;;;17.70;8.40;;;-3.10;91.40;;;;;;5074823;28;20456;-59
2024/01/10 07:37:38;;;;;;;12.63;8.30;;;-3.00;91.60;;;;;;5074846;28;20444;-59
2024/01/10 07:40:06;;;;;;;13.83;10.13;;;-3.10;91.70;;;;;;5074654;28;20927;-59
2024/01/10 07:42:33;;;;;;;11.77;7.07;;;-3.10;91.80;;;;;;5074572;28;20480;-59
2024/01/10 07:45:03;;;;;;;17.70;8.70;;;-3.10;91.90;;;;;;5074774;28;20518;-59
2024/01/10 07:47:30;;;;;;;15.00;8.00;;;-3.10;92.00;;;;;;5075403;28;20515;-59
2024/01/10 07:49:57;;;;;;;12.77;7.53;;;-3.10;92.00;;;;;;5074303;28;20522;-59
2024/01/10 07:52:25;;;;;;;14.50;8.10;;;-3.10;92.10;;;;;;5074536;28;20456;-59
2024/01/10 07:54:52;;;;;;;12.57;7.97;;;-3.10;92.20;;;;;;5074499;28;20441;-59
2024/01/10 07:57:19;;;;;;;17.50;8.53;;;-3.10;92.20;;;;;;5074556;28;20449;-59
2024/01/10 07:59:45;;;;;;;14.83;7.80;;;-3.10;92.20;;;;;;5074357;28;20457;-59
2024/01/10 08:02:12;;;;;;;14.50;7.57;;;-3.10;92.10;;;;;;5074368;28;20440;-59
2024/01/10 08:04:39;;;;;;;17.37;8.20;;;-3.00;92.30;;;;;;5074150;28;20853;-59
2024/01/10 08:07:05;;;;;;;13.50;8.10;;;-3.00;92.20;;;;;;5074302;28;20448;-59
2024/01/10 08:09:33;;;;;;;11.47;7.67;;;-3.00;92.10;;;;;;5073721;28;20484;-59
2024/01/10 08:12:00;;;;;;;14.33;8.30;;;-3.00;92.10;;;;;;5073906;28;20453;-59
2024/01/10 08:14:27;;;;;;;12.67;7.90;;;-3.00;92.00;;;;;;5074082;28;20445;-59
2024/01/10 08:16:54;;;;;;;13.93;7.37;;;-3.00;92.10;;;;;;5074226;28;20441;-59
2024/01/10 08:19:21;;;;;;;16.50;8.70;;;-3.00;92.20;;;;;;5074521;28;20499;-59
2024/01/10 08:21:48;;;;;;;13.80;8.00;;;-3.00;92.30;;;;;;5074014;28;20441;-59
2024/01/10 08:24:14;;;;;;;21.30;10.10;;;-3.00;92.40;;;;;;5073880;28;20433;-59
2024/01/10 08:26:42;;;;;;;14.87;8.93;;;-2.90;92.50;;;;;;5073913;28;20449;-59
2024/01/10 08:29:09;;;;;;;13.30;8.60;;;-2.90;92.50;;;;;;5073672;28;20492;-59
2024/01/10 08:31:36;;;;;;;18.00;9.47;;;-2.90;92.50;;;;;;5073839;28;20823;-59
2024/01/10 08:34:02;;;;;;;29.33;9.87;;;-2.90;92.50;;;;;;5073782;28;20449;-59
2024/01/10 08:36:29;;;;;;;15.30;9.60;;;-2.80;92.50;;;;;;5073556;28;20456;-59
2024/01/10 08:38:56;;;;;;;14.40;8.70;;;-2.90;92.30;;;;;;5073529;28;20468;-59
2024/01/10 08:41:23;;;;;;;15.57;9.07;;;-2.90;92.30;;;;;;5073672;28;20440;-59
2024/01/10 08:43:51;;;;;;;12.83;8.90;;;-2.90;92.50;;;;;;5073557;28;20440;-59
2024/01/10 08:46:17;;;;;;;14.73;8.80;;;-2.80;92.60;;;;;;5073507;28;20444;-59
2024/01/10 08:48:44;;;;;;;14.90;8.77;;;-2.80;92.50;;;;;;5073439;28;20459;-59
2024/01/10 08:51:12;;;;;;;15.03;9.73;;;-2.80;92.40;;;;;;5073422;28;20488;-59
2024/01/10 08:53:38;;;;;;;14.67;10.33;;;-2.90;92.40;;;;;;5073448;28;20448;-59
2024/01/10 08:56:06;;;;;;;16.43;9.73;;;-2.80;92.80;;;;;;5073399;28;20506;-59
2024/01/10 08:58:32;;;;;;;18.73;12.10;;;-2.80;93.40;;;;;;5073200;28;20468;-59
2024/01/10 09:01:01;;;;;;;20.57;13.13;;;-2.80;93.20;;;;;;5073450;28;20445;-59
2024/01/10 09:03:27;;;;;;;17.73;11.20;;;-2.80;93.20;;;;;;5073167;28;20951;-59
2024/01/10 09:05:54;;;;;;;17.50;10.80;;;-2.70;93.40;;;;;;5073305;28;20467;-59
2024/01/10 09:08:20;;;;;;;22.93;10.83;;;-2.70;93.30;;;;;;5073272;28;20475;-59
2024/01/10 09:10:49;;;;;;;26.30;13.87;;;-2.70;93.40;;;;;;5073213;28;20530;-59
2024/01/10 09:13:16;;;;;;;33.43;13.60;;;-2.60;93.60;;;;;;5072889;28;21013;-59
2024/01/10 09:15:42;;;;;;;27.53;14.10;;;-2.60;93.50;;;;;;5073245;28;20445;-59
2024/01/10 09:18:11;;;;;;;23.30;12.13;;;-2.60;93.50;;;;;;5073186;28;20468;-59
2024/01/10 09:20:37;;;;;;;20.90;13.00;;;-2.50;93.50;;;;;;5072897;28;20996;-59
2024/01/10 09:23:04;;;;;;;22.27;11.30;;;-2.60;93.40;;;;;;5075238;28;20452;-59
2024/01/10 09:25:31;;;;;;;20.50;12.20;;;-2.50;93.60;;;;;;5079891;28;20447;-59
2024/01/10 09:27:58;;;;;;;17.90;10.17;;;-2.50;93.60;;;;;;5079683;28;20472;-59
2024/01/10 09:30:25;;;;;;;27.10;11.77;;;-2.50;93.70;;;;;;5079671;28;20487;-59
2024/01/10 09:32:52;;;;;;;23.53;12.37;;;-2.50;93.70;;;;;;5079723;28;20464;-59
2024/01/10 09:35:20;;;;;;;22.47;12.90;;;-2.40;93.80;;;;;;5079490;28;20456;-59
2024/01/10 09:37:46;;;;;;;18.63;11.67;;;-2.40;93.80;;;;;;5079794;28;20835;-59
2024/01/10 09:40:16;;;;;;;22.60;12.10;;;-2.40;94.00;;;;;;5079969;28;20445;-59
2024/01/10 09:42:44;;;;;;;18.67;10.70;;;-2.30;94.00;;;;;;5079753;28;21017;-59
2024/01/10 09:45:12;;;;;;;21.43;11.10;;;-2.30;94.10;;;;;;5080315;28;20440;-60
2024/01/10 09:47:42;;;;;;;20.30;10.57;;;-2.30;94.10;;;;;;5079983;28;20456;-60
2024/01/10 09:50:11;;;;;;;18.50;11.30;;;-2.20;94.10;;;;;;5079537;28;20512;-59
2024/01/10 09:52:51;;;;;;;17.30;9.10;;;-2.10;94.20;;;;;;5079657;28;20463;-60
2024/01/10 09:55:20;;;;;;;23.87;10.80;;;-2.10;94.20;;;;;;5079384;28;20941;-60
2024/01/10 09:57:47;;;;;;;21.80;11.23;;;-2.00;94.10;;;;;;5079566;28;20492;-60
2024/01/10 10:00:17;;;;;;;17.83;11.17;;;-2.00;94.00;;;;;;5079604;28;20468;-60
2024/01/10 10:02:47;;;;;;;22.30;12.13;;;-1.90;93.90;;;;;;5079308;28;20506;-60
2024/01/10 10:05:15;;;;;;;19.23;11.33;;;-1.80;94.00;;;;;;5079754;28;20483;-60
2024/01/10 10:07:47;;;;;;;21.90;10.80;;;-1.80;93.90;;;;;;5079729;28;20448;-60
2024/01/10 10:10:15;;;;;;;16.50;10.10;;;-1.70;93.90;;;;;;5079458;28;20488;-60
2024/01/10 10:12:43;;;;;;;22.37;11.50;;;-1.60;93.90;;;;;;5079435;28;20539;-60
2024/01/10 10:15:13;;;;;;;21.00;9.93;;;-1.50;93.90;;;;;;5079401;28;20440;-60
2024/01/10 10:17:45;;;;;;;20.30;10.60;;;-1.50;93.80;;;;;;5079350;28;20443;-61
2024/01/10 10:20:14;;;;;;;20.47;11.03;;;-1.40;93.80;;;;;;5079422;28;20899;-60
2024/01/10 10:22:42;;;;;;;17.63;9.70;;;-1.30;93.60;;;;;;5079441;28;20483;-60
2024/01/10 10:25:11;;;;;;;17.73;10.33;;;-1.20;93.40;;;;;;5079272;28;20543;-60
2024/01/10 10:27:38;;;;;;;20.40;10.73;;;-1.10;93.20;;;;;;5079333;28;20501;-60
2024/01/10 10:30:09;;;;;;;15.63;11.93;;;-1.00;93.00;;;;;;5079431;28;20913;-60
2024/01/10 10:32:35;;;;;;;16.33;9.23;;;-0.90;92.80;;;;;;5079528;28;20428;-60
2024/01/10 10:35:05;;;;;;;20.00;11.10;;;-0.80;92.60;;;;;;5077306;28;20480;-61
2024/01/10 10:37:31;;;;;;;18.20;11.43;;;-0.70;92.40;;;;;;5076228;28;20445;-61
2024/01/10 10:39:58;;;;;;;13.93;10.50;;;-0.60;92.20;;;;;;5076335;28;20444;-61
2024/01/10 10:42:29;;;;;;;20.63;10.27;;;-0.50;91.90;;;;;;5076476;28;20451;-61
2024/01/10 10:45:02;;;;;;;14.20;9.20;;;-0.40;91.50;;;;;;5076317;28;20440;-61
2024/01/10 10:47:35;;;;;;;17.20;9.57;;;-0.30;91.00;;;;;;5077006;28;20457;-62
2024/01/10 10:50:04;;;;;;;15.70;9.40;;;-0.20;90.30;;;;;;5075913;28;20479;-61
2024/01/10 10:52:33;;;;;;;15.10;10.13;;;-0.10;89.90;;;;;;5075897;28;20455;-61
2024/01/10 10:55:00;;;;;;;17.67;9.97;;;0.00;88.90;;;;;;5075797;28;20841;-61
2024/01/10 10:57:29;;;;;;;19.93;9.50;;;0.10;88.10;;;;;;5075506;28;20448;-62
2024/01/10 10:59:58;;;;;;;15.50;10.20;;;0.20;87.40;;;;;;5075782;28;20821;-61
2024/01/10 11:02:24;;;;;;;16.03;10.43;;;0.30;86.60;;;;;;5075736;28;20449;-61
2024/01/10 11:04:54;;;;;;;25.60;10.90;;;0.40;85.70;;;;;;5075750;28;20451;-62
2024/01/10 11:07:21;;;;;;;24.20;9.50;;;0.60;84.60;;;;;;5075545;28;20452;-61
2024/01/10 11:09:49;;;;;;;14.60;9.17;;;0.70;83.10;;;;;;5075801;28;20480;-62
2024/01/10 11:12:28;;;;;;;17.23;9.53;;;0.90;82.20;;;;;;5076573;28;20486;-62
2024/01/10 11:15:10;;;;;;;16.70;8.70;;;1.00;80.80;;;;;;5075726;28;20424;-62
2024/01/10 11:17:54;;;;;;;18.13;9.17;;;1.20;79.60;;;;;;5075937;28;20428;-62
2024/01/10 11:20:43;;;;;;;18.73;10.50;;;1.30;78.10;;;;;;5075573;28;20787;-63
2024/01/10 11:23:39;;;;;;;12.77;8.80;;;1.40;77.30;;;;;;5075577;28;20436;-63
2024/01/10 11:26:06;;;;;;;16.47;9.47;;;1.50;77.10;;;;;;5075130;28;20421;-63
2024/01/10 11:28:33;;;;;;;14.53;9.50;;;1.60;76.10;;;;;;5074989;28;20457;-63
2024/01/10 11:31:01;;;;;;;18.77;10.60;;;1.70;75.60;;;;;;5074979;28;20530;-63
2024/01/10 11:33:32;;;;;;;15.23;9.97;;;1.80;75.00;;;;;;5075047;28;20476;-63
2024/01/10 11:36:24;;;;;;;14.60;9.80;;;2.00;74.30;;;;;;5074763;28;20455;-63
2024/01/10 11:38:56;;;;;;;14.23;9.77;;;2.10;73.50;;;;;;5055042;28;20496;-64
2024/01/10 11:41:25;;;;;;;17.10;9.73;;;2.20;72.50;;;;;;5074908;28;20421;-64
2024/01/10 11:44:29;;;;;;;17.90;10.53;;;2.30;72.00;;;;;;5074723;28;20527;-63
2024/01/10 11:46:58;;;;;;;14.53;9.20;;;2.50;71.70;;;;;;5074947;28;20428;-64
2024/01/10 11:49:25;;;;;;;15.77;10.00;;;2.70;70.10;;;;;;5074365;28;20988;-64
2024/01/10 11:51:56;;;;;;;20.00;9.97;;;2.80;68.60;;;;;;5074637;28;20480;-64
2024/01/10 11:54:47;;;;;;;23.33;11.37;;;2.90;68.30;;;;;;5075132;28;20433;-65
2024/01/10 11:57:19;;;;;;;18.70;11.13;;;3.10;67.50;;;;;;5054695;28;20460;-64
2024/01/10 11:59:46;;;;;;;19.23;10.70;;;3.10;66.80;;;;;;5074837;28;20449;-64
2024/01/10 12:02:15;;;;;;;16.20;10.60;;;3.20;66.20;;;;;;5074069;28;20938;-64
2024/01/10 12:04:42;;;;;;;15.37;10.63;;;3.20;65.70;;;;;;5074088;28;20494;-64
2024/01/10 12:07:09;;;;;;;17.83;11.60;;;3.30;65.20;;;;;;5074320;28;20502;-64
2024/01/10 12:09:36;;;;;;;16.80;11.33;;;3.30;65.10;;;;;;5074200;28;20453;-64
2024/01/10 12:12:03;;;;;;;16.57;10.97;;;3.30;65.30;;;;;;5074743;28;20480;-65
2024/01/10 12:14:31;;;;;;;18.97;11.77;;;3.40;65.30;;;;;;5074179;28;20519;-65
2024/01/10 12:16:58;;;;;;;19.07;11.23;;;3.40;65.20;;;;;;5073829;28;20445;-65
2024/01/10 12:19:26;;;;;;;16.30;10.53;;;3.40;65.20;;;;;;5074142;28;20464;-64
2024/01/10 12:21:53;;;;;;;25.53;10.80;;;3.40;65.00;;;;;;5074053;28;20463;-64
2024/01/10 12:24:20;;;;;;;20.70;10.80;;;3.40;64.80;;;;;;5074105;28;20464;-64
2024/01/10 12:26:48;;;;;;;15.83;11.17;;;3.60;64.80;;;;;;5074062;28;20448;-65
2024/01/10 12:29:19;;;;;;;16.77;10.30;;;3.70;64.10;;;;;;5073947;28;20452;-64
2024/01/10 12:31:47;;;;;;;15.97;10.87;;;3.90;63.50;;;;;;5073800;28;20522;-64
2024/01/10 12:34:14;;;;;;;16.50;10.67;;;4.10;63.00;;;;;;5073723;28;20448;-65
2024/01/10 12:36:42;;;;;;;19.80;11.13;;;4.30;61.60;;;;;;5073319;28;20468;-64
2024/01/10 12:39:09;;;;;;;19.40;10.60;;;4.50;60.70;;;;;;5073840;28;20468;-64